sensor_id;sensor_type;location;lat;lon;timestamp;P1;durP1;ratioP1;P2;durP2;ratioP2
17574;SDS011;8906;43.590;1.418;2023-07-31T00:00:03;4.47;;;3.47;;
17574;SDS011;8906;43.590;1.418;2023-07-31T00:02:31;5.22;;;3.50;;
17574;SDS011;8906;43.590;1.418;2023-07-31T00:04:59;8.73;;;4.28;;
17574;SDS011;8906;43.590;1.418;2023-07-31T00:07:27;6.68;;;3.53;;
17574;SDS011;8906;43.590;1.418;2023-07-31T00:09:53;3.95;;;3.63;;
17574;SDS011;8906;43.590;1.418;2023-07-31T00:12:21;4.85;;;3.72;;
17574;SDS011;8906;43.590;1.418;2023-07-31T00:14:48;5.93;;;3.42;;
17574;SDS011;8906;43.590;1.418;2023-07-31T00:17:16;3.10;;;2.80;;
17574;SDS011;8906;43.590;1.418;2023-07-31T00:19:43;6.10;;;3.78;;
17574;SDS011;8906;43.590;1.418;2023-07-31T00:22:12;5.32;;;2.88;;
17574;SDS011;8906;43.590;1.418;2023-07-31T00:24:39;5.40;;;3.58;;
17574;SDS011;8906;43.590;1.418;2023-07-31T00:27:06;6.90;;;3.17;;
17574;SDS011;8906;43.590;1.418;2023-07-31T00:29:33;6.07;;;4.00;;
17574;SDS011;8906;43.590;1.418;2023-07-31T00:32:00;7.65;;;3.33;;
17574;SDS011;8906;43.590;1.418;2023-07-31T00:34:27;4.18;;;3.28;;
17574;SDS011;8906;43.590;1.418;2023-07-31T00:36:54;4.32;;;3.47;;
17574;SDS011;8906;43.590;1.418;2023-07-31T00:39:22;6.53;;;4.32;;
17574;SDS011;8906;43.590;1.418;2023-07-31T00:41:49;5.43;;;2.90;;
17574;SDS011;8906;43.590;1.418;2023-07-31T00:44:16;5.88;;;4.10;;
17574;SDS011;8906;43.590;1.418;2023-07-31T00:46:43;7.68;;;4.10;;
17574;SDS011;8906;43.590;1.418;2023-07-31T00:49:10;4.35;;;3.53;;
17574;SDS011;8906;43.590;1.418;2023-07-31T00:51:37;5.40;;;3.35;;
17574;SDS011;8906;43.590;1.418;2023-07-31T00:54:04;4.45;;;3.42;;
17574;SDS011;8906;43.590;1.418;2023-07-31T00:56:34;9.88;;;4.47;;
17574;SDS011;8906;43.590;1.418;2023-07-31T00:59:01;5.35;;;4.00;;
17574;SDS011;8906;43.590;1.418;2023-07-31T01:01:28;6.00;;;4.25;;
17574;SDS011;8906;43.590;1.418;2023-07-31T01:03:54;4.43;;;4.03;;
17574;SDS011;8906;43.590;1.418;2023-07-31T01:06:24;4.10;;;3.70;;
17574;SDS011;8906;43.590;1.418;2023-07-31T01:09:01;6.03;;;4.57;;
17574;SDS011;8906;43.590;1.418;2023-07-31T01:11:30;4.53;;;4.05;;
17574;SDS011;8906;43.590;1.418;2023-07-31T01:14:00;4.95;;;3.60;;
17574;SDS011;8906;43.590;1.418;2023-07-31T01:16:28;7.88;;;4.32;;
17574;SDS011;8906;43.590;1.418;2023-07-31T01:18:54;7.70;;;4.22;;
17574;SDS011;8906;43.590;1.418;2023-07-31T01:21:23;5.22;;;3.60;;
17574;SDS011;8906;43.590;1.418;2023-07-31T01:26:58;5.03;;;4.32;;
17574;SDS011;8906;43.590;1.418;2023-07-31T01:29:32;5.00;;;4.28;;
17574;SDS011;8906;43.590;1.418;2023-07-31T01:32:04;6.82;;;3.88;;
17574;SDS011;8906;43.590;1.418;2023-07-31T01:34:33;4.95;;;4.35;;
17574;SDS011;8906;43.590;1.418;2023-07-31T01:37:01;4.70;;;3.95;;
17574;SDS011;8906;43.590;1.418;2023-07-31T01:39:29;10.00;;;4.53;;
17574;SDS011;8906;43.590;1.418;2023-07-31T01:41:57;6.38;;;3.92;;
17574;SDS011;8906;43.590;1.418;2023-07-31T01:44:24;5.28;;;4.68;;
17574;SDS011;8906;43.590;1.418;2023-07-31T01:46:51;5.82;;;4.90;;
17574;SDS011;8906;43.590;1.418;2023-07-31T01:49:18;7.20;;;4.22;;
17574;SDS011;8906;43.590;1.418;2023-07-31T01:51:45;5.20;;;4.32;;
17574;SDS011;8906;43.590;1.418;2023-07-31T01:54:11;4.97;;;4.07;;
17574;SDS011;8906;43.590;1.418;2023-07-31T01:56:38;9.00;;;4.72;;
17574;SDS011;8906;43.590;1.418;2023-07-31T01:59:07;7.65;;;4.10;;
17574;SDS011;8906;43.590;1.418;2023-07-31T02:01:34;6.85;;;4.47;;
17574;SDS011;8906;43.590;1.418;2023-07-31T02:04:00;5.75;;;4.15;;
17574;SDS011;8906;43.590;1.418;2023-07-31T02:06:29;7.60;;;4.63;;
17574;SDS011;8906;43.590;1.418;2023-07-31T02:08:56;5.47;;;4.85;;
17574;SDS011;8906;43.590;1.418;2023-07-31T02:11:23;4.25;;;3.85;;
17574;SDS011;8906;43.590;1.418;2023-07-31T02:13:50;5.70;;;4.25;;
17574;SDS011;8906;43.590;1.418;2023-07-31T02:16:18;6.93;;;4.18;;
17574;SDS011;8906;43.590;1.418;2023-07-31T02:18:45;4.70;;;4.20;;
17574;SDS011;8906;43.590;1.418;2023-07-31T02:21:12;4.60;;;4.20;;
17574;SDS011;8906;43.590;1.418;2023-07-31T02:23:39;4.50;;;3.80;;
17574;SDS011;8906;43.590;1.418;2023-07-31T02:26:06;4.28;;;3.63;;
17574;SDS011;8906;43.590;1.418;2023-07-31T02:28:33;5.32;;;4.88;;
17574;SDS011;8906;43.590;1.418;2023-07-31T02:30:59;4.55;;;4.00;;
17574;SDS011;8906;43.590;1.418;2023-07-31T02:33:28;7.60;;;3.47;;
17574;SDS011;8906;43.590;1.418;2023-07-31T02:35:55;6.45;;;3.83;;
17574;SDS011;8906;43.590;1.418;2023-07-31T02:38:22;4.35;;;3.53;;
17574;SDS011;8906;43.590;1.418;2023-07-31T02:40:49;7.32;;;5.05;;
17574;SDS011;8906;43.590;1.418;2023-07-31T02:43:16;4.32;;;3.92;;
17574;SDS011;8906;43.590;1.418;2023-07-31T02:45:42;5.22;;;4.68;;
17574;SDS011;8906;43.590;1.418;2023-07-31T02:48:09;6.10;;;3.97;;
17574;SDS011;8906;43.590;1.418;2023-07-31T02:50:38;6.40;;;4.90;;
17574;SDS011;8906;43.590;1.418;2023-07-31T02:53:04;4.65;;;4.10;;
17574;SDS011;8906;43.590;1.418;2023-07-31T02:55:30;4.90;;;3.95;;
17574;SDS011;8906;43.590;1.418;2023-07-31T02:57:57;6.22;;;4.20;;
17574;SDS011;8906;43.590;1.418;2023-07-31T03:00:24;5.50;;;4.53;;
17574;SDS011;8906;43.590;1.418;2023-07-31T03:02:51;4.97;;;4.18;;
17574;SDS011;8906;43.590;1.418;2023-07-31T03:05:18;4.95;;;4.05;;
17574;SDS011;8906;43.590;1.418;2023-07-31T03:07:46;3.97;;;3.58;;
17574;SDS011;8906;43.590;1.418;2023-07-31T03:10:13;5.40;;;4.38;;
17574;SDS011;8906;43.590;1.418;2023-07-31T03:12:40;4.65;;;4.05;;
17574;SDS011;8906;43.590;1.418;2023-07-31T03:15:07;9.27;;;4.13;;
17574;SDS011;8906;43.590;1.418;2023-07-31T03:17:35;4.13;;;3.70;;
17574;SDS011;8906;43.590;1.418;2023-07-31T03:20:02;6.97;;;3.67;;
17574;SDS011;8906;43.590;1.418;2023-07-31T03:22:30;8.52;;;3.92;;
17574;SDS011;8906;43.590;1.418;2023-07-31T03:24:58;7.85;;;4.50;;
17574;SDS011;8906;43.590;1.418;2023-07-31T03:27:25;5.05;;;3.65;;
17574;SDS011;8906;43.590;1.418;2023-07-31T03:29:52;7.32;;;3.63;;
17574;SDS011;8906;43.590;1.418;2023-07-31T03:32:19;5.20;;;3.83;;
17574;SDS011;8906;43.590;1.418;2023-07-31T03:34:46;5.78;;;3.58;;
17574;SDS011;8906;43.590;1.418;2023-07-31T03:37:13;5.68;;;3.75;;
17574;SDS011;8906;43.590;1.418;2023-07-31T03:39:40;5.55;;;4.13;;
17574;SDS011;8906;43.590;1.418;2023-07-31T03:42:08;5.32;;;4.53;;
17574;SDS011;8906;43.590;1.418;2023-07-31T03:44:35;7.55;;;4.78;;
17574;SDS011;8906;43.590;1.418;2023-07-31T03:47:02;6.22;;;4.10;;
17574;SDS011;8906;43.590;1.418;2023-07-31T03:49:29;4.05;;;3.67;;
17574;SDS011;8906;43.590;1.418;2023-07-31T03:51:56;5.13;;;3.58;;
17574;SDS011;8906;43.590;1.418;2023-07-31T03:54:23;7.30;;;4.18;;
17574;SDS011;8906;43.590;1.418;2023-07-31T03:56:49;4.57;;;3.42;;
17574;SDS011;8906;43.590;1.418;2023-07-31T03:59:18;6.57;;;4.07;;
17574;SDS011;8906;43.590;1.418;2023-07-31T04:01:45;6.05;;;4.55;;
17574;SDS011;8906;43.590;1.418;2023-07-31T04:04:11;7.53;;;5.53;;
17574;SDS011;8906;43.590;1.418;2023-07-31T04:06:38;7.90;;;5.35;;
17574;SDS011;8906;43.590;1.418;2023-07-31T04:09:05;8.85;;;5.43;;
17574;SDS011;8906;43.590;1.418;2023-07-31T04:11:32;8.43;;;6.60;;
17574;SDS011;8906;43.590;1.418;2023-07-31T04:13:59;8.15;;;6.18;;
17574;SDS011;8906;43.590;1.418;2023-07-31T04:16:27;5.75;;;5.10;;
17574;SDS011;8906;43.590;1.418;2023-07-31T04:18:54;8.52;;;4.78;;
17574;SDS011;8906;43.590;1.418;2023-07-31T04:21:21;5.32;;;4.45;;
17574;SDS011;8906;43.590;1.418;2023-07-31T04:23:48;6.32;;;5.22;;
17574;SDS011;8906;43.590;1.418;2023-07-31T04:26:15;8.57;;;5.03;;
17574;SDS011;8906;43.590;1.418;2023-07-31T04:28:42;6.00;;;4.57;;
17574;SDS011;8906;43.590;1.418;2023-07-31T04:31:09;6.68;;;4.55;;
17574;SDS011;8906;43.590;1.418;2023-07-31T04:33:37;4.45;;;4.03;;
17574;SDS011;8906;43.590;1.418;2023-07-31T04:36:04;8.70;;;4.43;;
17574;SDS011;8906;43.590;1.418;2023-07-31T04:38:31;5.63;;;4.57;;
17574;SDS011;8906;43.590;1.418;2023-07-31T04:40:58;7.10;;;5.32;;
17574;SDS011;8906;43.590;1.418;2023-07-31T04:43:25;9.23;;;4.82;;
17574;SDS011;8906;43.590;1.418;2023-07-31T04:45:52;5.18;;;4.50;;
17574;SDS011;8906;43.590;1.418;2023-07-31T04:48:19;6.38;;;4.13;;
17574;SDS011;8906;43.590;1.418;2023-07-31T04:50:47;9.13;;;3.47;;
17574;SDS011;8906;43.590;1.418;2023-07-31T04:53:14;5.47;;;3.78;;
17574;SDS011;8906;43.590;1.418;2023-07-31T04:55:41;9.15;;;3.92;;
17574;SDS011;8906;43.590;1.418;2023-07-31T04:58:08;6.60;;;4.25;;
17574;SDS011;8906;43.590;1.418;2023-07-31T05:00:34;6.78;;;3.78;;
17574;SDS011;8906;43.590;1.418;2023-07-31T05:03:01;7.70;;;4.05;;
17574;SDS011;8906;43.590;1.418;2023-07-31T05:05:28;6.47;;;4.28;;
17574;SDS011;8906;43.590;1.418;2023-07-31T05:07:57;6.22;;;4.30;;
17574;SDS011;8906;43.590;1.418;2023-07-31T05:10:23;5.60;;;2.97;;
17574;SDS011;8906;43.590;1.418;2023-07-31T05:12:50;8.27;;;4.40;;
17574;SDS011;8906;43.590;1.418;2023-07-31T05:15:17;4.80;;;3.13;;
17574;SDS011;8906;43.590;1.418;2023-07-31T05:17:44;5.88;;;3.35;;
17574;SDS011;8906;43.590;1.418;2023-07-31T05:20:11;3.97;;;3.05;;
17574;SDS011;8906;43.590;1.418;2023-07-31T05:22:39;3.92;;;3.13;;
17574;SDS011;8906;43.590;1.418;2023-07-31T05:25:08;6.22;;;3.78;;
17574;SDS011;8906;43.590;1.418;2023-07-31T05:27:35;6.40;;;3.67;;
17574;SDS011;8906;43.590;1.418;2023-07-31T05:30:02;4.53;;;3.20;;
17574;SDS011;8906;43.590;1.418;2023-07-31T05:32:29;6.55;;;4.10;;
17574;SDS011;8906;43.590;1.418;2023-07-31T05:34:56;7.15;;;4.18;;
17574;SDS011;8906;43.590;1.418;2023-07-31T05:37:23;4.63;;;3.50;;
17574;SDS011;8906;43.590;1.418;2023-07-31T05:39:50;7.20;;;4.13;;
17574;SDS011;8906;43.590;1.418;2023-07-31T05:42:18;9.63;;;4.38;;
17574;SDS011;8906;43.590;1.418;2023-07-31T05:44:45;8.07;;;3.75;;
17574;SDS011;8906;43.590;1.418;2023-07-31T05:47:13;6.13;;;4.20;;
17574;SDS011;8906;43.590;1.418;2023-07-31T05:49:40;5.25;;;3.53;;
17574;SDS011;8906;43.590;1.418;2023-07-31T05:52:07;4.38;;;3.45;;
17574;SDS011;8906;43.590;1.418;2023-07-31T05:54:34;6.70;;;3.10;;
17574;SDS011;8906;43.590;1.418;2023-07-31T05:57:00;4.68;;;4.10;;
17574;SDS011;8906;43.590;1.418;2023-07-31T05:59:29;5.22;;;3.22;;
17574;SDS011;8906;43.590;1.418;2023-07-31T06:01:58;7.18;;;4.07;;
17574;SDS011;8906;43.590;1.418;2023-07-31T06:04:25;5.20;;;3.45;;
17574;SDS011;8906;43.590;1.418;2023-07-31T06:06:51;6.15;;;3.47;;
17574;SDS011;8906;43.590;1.418;2023-07-31T06:09:18;5.28;;;2.88;;
17574;SDS011;8906;43.590;1.418;2023-07-31T06:11:46;6.72;;;3.85;;
17574;SDS011;8906;43.590;1.418;2023-07-31T06:14:13;4.88;;;3.58;;
17574;SDS011;8906;43.590;1.418;2023-07-31T06:16:41;10.85;;;4.40;;
17574;SDS011;8906;43.590;1.418;2023-07-31T06:19:09;9.13;;;4.20;;
17574;SDS011;8906;43.590;1.418;2023-07-31T06:21:36;6.32;;;3.38;;
17574;SDS011;8906;43.590;1.418;2023-07-31T06:24:03;7.32;;;3.72;;
17574;SDS011;8906;43.590;1.418;2023-07-31T06:26:30;5.68;;;3.28;;
17574;SDS011;8906;43.590;1.418;2023-07-31T06:28:57;4.57;;;2.92;;
17574;SDS011;8906;43.590;1.418;2023-07-31T06:31:24;10.13;;;3.28;;
17574;SDS011;8906;43.590;1.418;2023-07-31T06:33:52;7.75;;;3.67;;
17574;SDS011;8906;43.590;1.418;2023-07-31T06:36:20;8.10;;;3.22;;
17574;SDS011;8906;43.590;1.418;2023-07-31T06:38:47;7.32;;;3.63;;
17574;SDS011;8906;43.590;1.418;2023-07-31T06:41:14;9.40;;;3.25;;
17574;SDS011;8906;43.590;1.418;2023-07-31T06:43:40;6.15;;;3.45;;
17574;SDS011;8906;43.590;1.418;2023-07-31T06:46:08;6.90;;;3.65;;
17574;SDS011;8906;43.590;1.418;2023-07-31T06:48:36;8.63;;;4.00;;
17574;SDS011;8906;43.590;1.418;2023-07-31T06:51:04;4.80;;;2.97;;
17574;SDS011;8906;43.590;1.418;2023-07-31T06:53:31;6.95;;;3.10;;
17574;SDS011;8906;43.590;1.418;2023-07-31T06:55:58;6.43;;;3.42;;
17574;SDS011;8906;43.590;1.418;2023-07-31T06:58:25;4.20;;;3.05;;
17574;SDS011;8906;43.590;1.418;2023-07-31T07:00:52;5.38;;;3.30;;
17574;SDS011;8906;43.590;1.418;2023-07-31T07:03:18;2.92;;;2.67;;
17574;SDS011;8906;43.590;1.418;2023-07-31T07:05:45;5.95;;;2.72;;
17574;SDS011;8906;43.590;1.418;2023-07-31T07:08:14;6.20;;;3.17;;
17574;SDS011;8906;43.590;1.418;2023-07-31T07:10:42;4.20;;;2.67;;
17574;SDS011;8906;43.590;1.418;2023-07-31T07:13:08;8.35;;;3.50;;
17574;SDS011;8906;43.590;1.418;2023-07-31T07:15:35;5.68;;;3.22;;
17574;SDS011;8906;43.590;1.418;2023-07-31T07:18:02;7.30;;;3.55;;
17574;SDS011;8906;43.590;1.418;2023-07-31T07:20:29;4.20;;;2.97;;
17574;SDS011;8906;43.590;1.418;2023-07-31T07:22:56;4.80;;;3.67;;
17574;SDS011;8906;43.590;1.418;2023-07-31T07:25:24;9.45;;;3.85;;
17574;SDS011;8906;43.590;1.418;2023-07-31T07:27:52;12.30;;;3.83;;
17574;SDS011;8906;43.590;1.418;2023-07-31T07:30:19;8.23;;;3.40;;
17574;SDS011;8906;43.590;1.418;2023-07-31T07:32:46;7.47;;;2.63;;
17574;SDS011;8906;43.590;1.418;2023-07-31T07:35:13;5.95;;;3.70;;
17574;SDS011;8906;43.590;1.418;2023-07-31T07:37:40;5.80;;;4.07;;
17574;SDS011;8906;43.590;1.418;2023-07-31T07:40:08;6.22;;;3.10;;
17574;SDS011;8906;43.590;1.418;2023-07-31T07:42:36;6.40;;;3.45;;
17574;SDS011;8906;43.590;1.418;2023-07-31T07:45:03;12.32;;;4.85;;
17574;SDS011;8906;43.590;1.418;2023-07-31T07:47:31;4.70;;;3.53;;
17574;SDS011;8906;43.590;1.418;2023-07-31T07:49:58;8.60;;;3.72;;
17574;SDS011;8906;43.590;1.418;2023-07-31T07:52:25;8.60;;;3.90;;
17574;SDS011;8906;43.590;1.418;2023-07-31T07:54:52;6.88;;;3.38;;
17574;SDS011;8906;43.590;1.418;2023-07-31T07:57:19;4.28;;;3.25;;
17574;SDS011;8906;43.590;1.418;2023-07-31T07:59:47;9.25;;;3.60;;
17574;SDS011;8906;43.590;1.418;2023-07-31T08:02:14;5.88;;;3.08;;
17574;SDS011;8906;43.590;1.418;2023-07-31T08:04:41;7.85;;;3.50;;
17574;SDS011;8906;43.590;1.418;2023-07-31T08:07:08;6.82;;;3.38;;
17574;SDS011;8906;43.590;1.418;2023-07-31T08:09:37;6.93;;;3.72;;
17574;SDS011;8906;43.590;1.418;2023-07-31T08:12:04;6.00;;;3.00;;
17574;SDS011;8906;43.590;1.418;2023-07-31T08:14:31;6.90;;;4.05;;
17574;SDS011;8906;43.590;1.418;2023-07-31T08:17:00;6.95;;;3.20;;
17574;SDS011;8906;43.590;1.418;2023-07-31T08:19:28;6.18;;;3.70;;
17574;SDS011;8906;43.590;1.418;2023-07-31T08:21:54;4.45;;;2.70;;
17574;SDS011;8906;43.590;1.418;2023-07-31T08:24:21;5.97;;;3.03;;
17574;SDS011;8906;43.590;1.418;2023-07-31T08:26:49;6.07;;;2.75;;
17574;SDS011;8906;43.590;1.418;2023-07-31T08:29:15;6.18;;;3.55;;
17574;SDS011;8906;43.590;1.418;2023-07-31T08:31:42;8.35;;;3.75;;
17574;SDS011;8906;43.590;1.418;2023-07-31T08:34:11;4.93;;;2.63;;
17574;SDS011;8906;43.590;1.418;2023-07-31T08:36:37;7.47;;;2.78;;
17574;SDS011;8906;43.590;1.418;2023-07-31T08:39:04;6.40;;;3.22;;
17574;SDS011;8906;43.590;1.418;2023-07-31T08:41:31;6.22;;;3.55;;
17574;SDS011;8906;43.590;1.418;2023-07-31T08:44:03;5.50;;;3.25;;
17574;SDS011;8906;43.590;1.418;2023-07-31T08:46:30;7.28;;;3.63;;
17574;SDS011;8906;43.590;1.418;2023-07-31T08:48:58;4.03;;;2.78;;
17574;SDS011;8906;43.590;1.418;2023-07-31T08:51:27;3.80;;;2.78;;
17574;SDS011;8906;43.590;1.418;2023-07-31T08:53:55;4.03;;;2.95;;
17574;SDS011;8906;43.590;1.418;2023-07-31T08:56:23;2.20;;;2.00;;
17574;SDS011;8906;43.590;1.418;2023-07-31T08:58:51;6.45;;;2.53;;
17574;SDS011;8906;43.590;1.418;2023-07-31T09:01:19;3.47;;;2.70;;
17574;SDS011;8906;43.590;1.418;2023-07-31T09:03:47;3.35;;;2.53;;
17574;SDS011;8906;43.590;1.418;2023-07-31T09:06:15;5.70;;;2.30;;
17574;SDS011;8906;43.590;1.418;2023-07-31T09:08:46;2.30;;;1.90;;
17574;SDS011;8906;43.590;1.418;2023-07-31T09:11:13;2.88;;;1.85;;
17574;SDS011;8906;43.590;1.418;2023-07-31T09:13:40;3.75;;;1.70;;
17574;SDS011;8906;43.590;1.418;2023-07-31T09:16:08;5.53;;;2.22;;
17574;SDS011;8906;43.590;1.418;2023-07-31T09:18:41;5.82;;;2.13;;
17574;SDS011;8906;43.590;1.418;2023-07-31T09:21:19;3.95;;;2.08;;
17574;SDS011;8906;43.590;1.418;2023-07-31T09:23:47;5.05;;;2.40;;
17574;SDS011;8906;43.590;1.418;2023-07-31T09:26:28;4.72;;;2.30;;
17574;SDS011;8906;43.590;1.418;2023-07-31T09:28:56;5.22;;;2.05;;
17574;SDS011;8906;43.590;1.418;2023-07-31T09:31:31;3.72;;;2.17;;
17574;SDS011;8906;43.590;1.418;2023-07-31T09:34:05;4.22;;;2.72;;
17574;SDS011;8906;43.590;1.418;2023-07-31T09:36:31;3.38;;;2.47;;
17574;SDS011;8906;43.590;1.418;2023-07-31T09:39:02;3.15;;;2.30;;
17574;SDS011;8906;43.590;1.418;2023-07-31T09:41:30;2.20;;;1.95;;
17574;SDS011;8906;43.590;1.418;2023-07-31T09:43:57;3.45;;;2.03;;
17574;SDS011;8906;43.590;1.418;2023-07-31T09:46:24;5.55;;;2.42;;
17574;SDS011;8906;43.590;1.418;2023-07-31T09:48:53;3.20;;;2.30;;
17574;SDS011;8906;43.590;1.418;2023-07-31T09:51:34;1.90;;;1.75;;
17574;SDS011;8906;43.590;1.418;2023-07-31T09:54:05;4.10;;;1.88;;
17574;SDS011;8906;43.590;1.418;2023-07-31T09:56:36;3.13;;;1.90;;
17574;SDS011;8906;43.590;1.418;2023-07-31T09:59:07;5.43;;;2.17;;
17574;SDS011;8906;43.590;1.418;2023-07-31T10:01:36;2.80;;;2.20;;
17574;SDS011;8906;43.590;1.418;2023-07-31T10:04:04;4.38;;;2.70;;
17574;SDS011;8906;43.590;1.418;2023-07-31T10:06:33;2.83;;;2.03;;
17574;SDS011;8906;43.590;1.418;2023-07-31T10:09:01;7.40;;;1.90;;
17574;SDS011;8906;43.590;1.418;2023-07-31T10:11:30;3.75;;;2.10;;
17574;SDS011;8906;43.590;1.418;2023-07-31T10:14:03;4.57;;;2.50;;
17574;SDS011;8906;43.590;1.418;2023-07-31T10:16:31;2.10;;;1.90;;
17574;SDS011;8906;43.590;1.418;2023-07-31T10:19:01;2.42;;;2.17;;
17574;SDS011;8906;43.590;1.418;2023-07-31T10:21:28;4.85;;;2.45;;
17574;SDS011;8906;43.590;1.418;2023-07-31T10:24:00;3.28;;;2.13;;
17574;SDS011;8906;43.590;1.418;2023-07-31T10:26:28;4.25;;;3.03;;
17574;SDS011;8906;43.590;1.418;2023-07-31T10:28:58;5.10;;;2.40;;
17574;SDS011;8906;43.590;1.418;2023-07-31T10:31:25;3.00;;;2.25;;
17574;SDS011;8906;43.590;1.418;2023-07-31T10:33:53;2.42;;;1.95;;
17574;SDS011;8906;43.590;1.418;2023-07-31T10:36:21;2.97;;;2.40;;
17574;SDS011;8906;43.590;1.418;2023-07-31T10:38:48;3.40;;;2.40;;
17574;SDS011;8906;43.590;1.418;2023-07-31T10:41:16;4.00;;;2.35;;
17574;SDS011;8906;43.590;1.418;2023-07-31T10:43:46;3.03;;;2.42;;
17574;SDS011;8906;43.590;1.418;2023-07-31T10:46:13;2.63;;;2.38;;
17574;SDS011;8906;43.590;1.418;2023-07-31T10:48:41;2.38;;;2.08;;
17574;SDS011;8906;43.590;1.418;2023-07-31T10:51:08;3.78;;;2.50;;
17574;SDS011;8906;43.590;1.418;2023-07-31T10:53:37;5.35;;;2.38;;
17574;SDS011;8906;43.590;1.418;2023-07-31T10:56:07;4.07;;;2.22;;
17574;SDS011;8906;43.590;1.418;2023-07-31T10:58:34;3.38;;;2.47;;
17574;SDS011;8906;43.590;1.418;2023-07-31T11:01:05;2.83;;;2.35;;
17574;SDS011;8906;43.590;1.418;2023-07-31T11:03:42;2.58;;;2.05;;
17574;SDS011;8906;43.590;1.418;2023-07-31T11:06:10;2.72;;;1.83;;
17574;SDS011;8906;43.590;1.418;2023-07-31T11:08:41;2.10;;;1.90;;
17574;SDS011;8906;43.590;1.418;2023-07-31T11:11:09;12.35;;;2.75;;
17574;SDS011;8906;43.590;1.418;2023-07-31T11:13:41;2.60;;;2.20;;
17574;SDS011;8906;43.590;1.418;2023-07-31T11:16:11;3.25;;;2.60;;
17574;SDS011;8906;43.590;1.418;2023-07-31T11:18:39;2.10;;;1.90;;
17574;SDS011;8906;43.590;1.418;2023-07-31T11:21:07;5.45;;;2.40;;
17574;SDS011;8906;43.590;1.418;2023-07-31T11:23:36;2.65;;;2.40;;
17574;SDS011;8906;43.590;1.418;2023-07-31T11:26:04;4.72;;;2.35;;
17574;SDS011;8906;43.590;1.418;2023-07-31T11:28:32;2.72;;;2.20;;
17574;SDS011;8906;43.590;1.418;2023-07-31T11:31:00;2.38;;;2.17;;
17574;SDS011;8906;43.590;1.418;2023-07-31T11:33:30;2.22;;;2.00;;
17574;SDS011;8906;43.590;1.418;2023-07-31T11:35:57;7.35;;;2.80;;
17574;SDS011;8906;43.590;1.418;2023-07-31T11:38:24;4.20;;;2.63;;
17574;SDS011;8906;43.590;1.418;2023-07-31T11:40:52;2.70;;;1.88;;
17574;SDS011;8906;43.590;1.418;2023-07-31T11:43:20;2.70;;;2.20;;
17574;SDS011;8906;43.590;1.418;2023-07-31T11:45:47;3.10;;;2.33;;
17574;SDS011;8906;43.590;1.418;2023-07-31T11:48:21;4.15;;;2.45;;
17574;SDS011;8906;43.590;1.418;2023-07-31T11:50:51;2.47;;;2.28;;
17574;SDS011;8906;43.590;1.418;2023-07-31T11:53:19;3.95;;;2.55;;
17574;SDS011;8906;43.590;1.418;2023-07-31T11:55:50;4.18;;;2.60;;
17574;SDS011;8906;43.590;1.418;2023-07-31T11:58:18;3.85;;;2.65;;
17574;SDS011;8906;43.590;1.418;2023-07-31T12:00:47;3.05;;;2.70;;
17574;SDS011;8906;43.590;1.418;2023-07-31T12:03:14;2.67;;;2.03;;
17574;SDS011;8906;43.590;1.418;2023-07-31T12:05:41;2.95;;;1.83;;
17574;SDS011;8906;43.590;1.418;2023-07-31T12:08:10;3.17;;;2.78;;
17574;SDS011;8906;43.590;1.418;2023-07-31T12:10:38;2.85;;;2.40;;
17574;SDS011;8906;43.590;1.418;2023-07-31T12:13:07;5.50;;;2.40;;
17574;SDS011;8906;43.590;1.418;2023-07-31T12:15:38;5.50;;;2.53;;
17574;SDS011;8906;43.590;1.418;2023-07-31T12:18:07;2.97;;;1.80;;
17574;SDS011;8906;43.590;1.418;2023-07-31T12:20:39;2.47;;;2.25;;
17574;SDS011;8906;43.590;1.418;2023-07-31T12:23:13;5.78;;;2.50;;
17574;SDS011;8906;43.590;1.418;2023-07-31T12:25:41;3.65;;;2.60;;
17574;SDS011;8906;43.590;1.418;2023-07-31T12:28:08;3.63;;;2.83;;
17574;SDS011;8906;43.590;1.418;2023-07-31T12:30:38;3.40;;;2.28;;
17574;SDS011;8906;43.590;1.418;2023-07-31T12:33:06;3.53;;;2.33;;
17574;SDS011;8906;43.590;1.418;2023-07-31T12:35:39;5.35;;;2.90;;
17574;SDS011;8906;43.590;1.418;2023-07-31T12:38:11;4.55;;;2.65;;
17574;SDS011;8906;43.590;1.418;2023-07-31T12:40:40;3.10;;;2.80;;
17574;SDS011;8906;43.590;1.418;2023-07-31T12:43:08;3.65;;;2.33;;
17574;SDS011;8906;43.590;1.418;2023-07-31T12:45:35;3.20;;;1.80;;
17574;SDS011;8906;43.590;1.418;2023-07-31T12:48:02;4.20;;;2.42;;
17574;SDS011;8906;43.590;1.418;2023-07-31T12:50:29;5.28;;;3.03;;
17574;SDS011;8906;43.590;1.418;2023-07-31T12:52:56;3.92;;;2.40;;
17574;SDS011;8906;43.590;1.418;2023-07-31T12:55:24;2.55;;;2.35;;
17574;SDS011;8906;43.590;1.418;2023-07-31T12:57:52;3.88;;;2.38;;
17574;SDS011;8906;43.590;1.418;2023-07-31T13:00:19;1.90;;;1.80;;
17574;SDS011;8906;43.590;1.418;2023-07-31T13:02:46;2.97;;;2.53;;
17574;SDS011;8906;43.590;1.418;2023-07-31T13:05:13;3.17;;;2.75;;
17574;SDS011;8906;43.590;1.418;2023-07-31T13:07:40;2.63;;;2.42;;
17574;SDS011;8906;43.590;1.418;2023-07-31T13:10:08;4.00;;;2.22;;
17574;SDS011;8906;43.590;1.418;2023-07-31T13:12:35;3.50;;;2.50;;
17574;SDS011;8906;43.590;1.418;2023-07-31T13:15:03;4.00;;;2.40;;
17574;SDS011;8906;43.590;1.418;2023-07-31T13:17:31;4.70;;;2.47;;
17574;SDS011;8906;43.590;1.418;2023-07-31T13:19:58;2.83;;;1.80;;
17574;SDS011;8906;43.590;1.418;2023-07-31T13:22:25;2.70;;;2.28;;
17574;SDS011;8906;43.590;1.418;2023-07-31T13:24:52;2.92;;;2.50;;
17574;SDS011;8906;43.590;1.418;2023-07-31T13:27:19;2.50;;;2.30;;
17574;SDS011;8906;43.590;1.418;2023-07-31T13:29:47;3.17;;;2.83;;
17574;SDS011;8906;43.590;1.418;2023-07-31T13:32:15;3.08;;;1.88;;
17574;SDS011;8906;43.590;1.418;2023-07-31T13:34:43;2.22;;;1.98;;
17574;SDS011;8906;43.590;1.418;2023-07-31T13:37:10;2.75;;;1.80;;
17574;SDS011;8906;43.590;1.418;2023-07-31T13:39:38;2.50;;;2.30;;
17574;SDS011;8906;43.590;1.418;2023-07-31T13:42:05;3.47;;;2.67;;
17574;SDS011;8906;43.590;1.418;2023-07-31T13:44:33;4.60;;;2.45;;
17574;SDS011;8906;43.590;1.418;2023-07-31T13:47:00;2.60;;;2.38;;
17574;SDS011;8906;43.590;1.418;2023-07-31T13:49:28;3.05;;;2.50;;
17574;SDS011;8906;43.590;1.418;2023-07-31T13:51:55;2.35;;;1.95;;
17574;SDS011;8906;43.590;1.418;2023-07-31T13:54:22;3.85;;;2.85;;
17574;SDS011;8906;43.590;1.418;2023-07-31T13:56:49;5.72;;;3.13;;
17574;SDS011;8906;43.590;1.418;2023-07-31T13:59:16;4.47;;;2.42;;
17574;SDS011;8906;43.590;1.418;2023-07-31T14:01:43;3.13;;;2.65;;
17574;SDS011;8906;43.590;1.418;2023-07-31T14:04:10;4.57;;;2.90;;
17574;SDS011;8906;43.590;1.418;2023-07-31T14:06:39;4.53;;;3.00;;
17574;SDS011;8906;43.590;1.418;2023-07-31T14:09:06;4.00;;;3.00;;
17574;SDS011;8906;43.590;1.418;2023-07-31T14:11:33;3.90;;;2.40;;
17574;SDS011;8906;43.590;1.418;2023-07-31T14:14:00;6.43;;;2.72;;
17574;SDS011;8906;43.590;1.418;2023-07-31T14:16:27;4.60;;;3.38;;
17574;SDS011;8906;43.590;1.418;2023-07-31T14:18:54;5.65;;;2.72;;
17574;SDS011;8906;43.590;1.418;2023-07-31T14:21:24;4.22;;;3.00;;
17574;SDS011;8906;43.590;1.418;2023-07-31T14:23:51;3.72;;;2.80;;
17574;SDS011;8906;43.590;1.418;2023-07-31T14:26:18;5.13;;;2.50;;
17574;SDS011;8906;43.590;1.418;2023-07-31T14:28:45;4.15;;;2.60;;
17574;SDS011;8906;43.590;1.418;2023-07-31T14:31:12;4.07;;;2.78;;
17574;SDS011;8906;43.590;1.418;2023-07-31T14:33:39;4.15;;;2.97;;
17574;SDS011;8906;43.590;1.418;2023-07-31T14:36:06;5.55;;;3.20;;
17574;SDS011;8906;43.590;1.418;2023-07-31T14:38:33;3.85;;;2.95;;
17574;SDS011;8906;43.590;1.418;2023-07-31T14:41:01;4.93;;;2.63;;
17574;SDS011;8906;43.590;1.418;2023-07-31T14:43:28;5.00;;;3.45;;
17574;SDS011;8906;43.590;1.418;2023-07-31T14:45:55;3.78;;;3.33;;
17574;SDS011;8906;43.590;1.418;2023-07-31T14:48:24;3.88;;;3.15;;
17574;SDS011;8906;43.590;1.418;2023-07-31T14:50:51;4.50;;;2.78;;
17574;SDS011;8906;43.590;1.418;2023-07-31T14:53:18;5.15;;;3.38;;
17574;SDS011;8906;43.590;1.418;2023-07-31T14:55:45;5.03;;;3.28;;
17574;SDS011;8906;43.590;1.418;2023-07-31T14:58:13;4.15;;;2.58;;
17574;SDS011;8906;43.590;1.418;2023-07-31T15:00:42;3.42;;;2.53;;
17574;SDS011;8906;43.590;1.418;2023-07-31T15:03:09;3.85;;;3.38;;
17574;SDS011;8906;43.590;1.418;2023-07-31T15:05:35;3.22;;;2.92;;